Weatherford, Texas
Current Conditions -  °F | °C
As of 5:01 PM on Thursday 18 Dec 2014 (Local Time) from KMWL Reporting Station
Scattered Clouds Scattered Clouds  
Wind Chill: 10°   Ceiling: Unl
Heat Index: 10°   Visibility: 10mi
Dew Point:   Wind: 6mph
Humidity: 80%   Direction: 40°NE
Pressure: 30.1"   Gusts: NA
Location:  32.76°N, 97.8°W
Report Text: KMWL 182301Z AUTO 04005KT 10SM SCT019 10/07 A3010 RMK AO2 T01000067
Loading
Personal Weather Stations






























Interactive Weather Map New forecast layout! Learn more

10-Day Weather Forecast

Advertisements
Track Severe Weather on mobile